sensor_id;sensor_type;location;lat;lon;timestamp;temperature;humidity
56436;DHT22;42335;44.872;20.658;2023-05-17T10:27:05;691.90;1638.40
56436;DHT22;42335;44.872;20.658;2023-05-17T10:29:32;691.70;1664.00
56436;DHT22;42335;44.872;20.658;2023-05-17T10:32:05;691.80;1638.40
56436;DHT22;42335;44.872;20.658;2023-05-17T10:34:37;691.70;1638.40
56436;DHT22;42335;44.872;20.658;2023-05-17T10:37:03;692.00;1612.80
56436;DHT22;42335;44.872;20.658;2023-05-17T10:39:30;692.10;1587.20
56436;DHT22;42335;44.872;20.658;2023-05-17T10:42:01;692.10;1587.20
56436;DHT22;42335;44.872;20.658;2023-05-17T10:44:30;691.70;1587.20
56436;DHT22;42335;44.872;20.658;2023-05-17T10:46:57;691.80;1587.20
56436;DHT22;42335;44.872;20.658;2023-05-17T10:49:34;716.80;1587.20
56436;DHT22;42335;44.872;20.658;2023-05-17T10:52:15;717.10;1561.60
56436;DHT22;42335;44.872;20.658;2023-05-17T10:54:43;717.10;1561.60
56436;DHT22;42335;44.872;20.658;2023-05-17T10:57:19;716.80;1587.20
56436;DHT22;42335;44.872;20.658;2023-05-17T10:59:58;716.80;1587.20
56436;DHT22;42335;44.872;20.658;2023-05-17T11:02:26;692.10;1561.60
56436;DHT22;42335;44.872;20.658;2023-05-17T11:04:52;717.10;1561.60
56436;DHT22;42335;44.872;20.658;2023-05-17T11:22:15;742.70;1484.80
56436;DHT22;42335;44.872;20.658;2023-05-17T11:24:43;742.70;1433.60
56436;DHT22;42335;44.872;20.658;2023-05-17T11:27:11;742.80;1459.20
56436;DHT22;42335;44.872;20.658;2023-05-17T11:29:41;742.80;1459.20
56436;DHT22;42335;44.872;20.658;2023-05-17T11:32:09;742.80;1484.80
56436;DHT22;42335;44.872;20.658;2023-05-17T11:34:34;742.80;1484.80
56436;DHT22;42335;44.872;20.658;2023-05-17T11:37:01;742.90;1484.80
56436;DHT22;42335;44.872;20.658;2023-05-17T11:39:29;742.90;1459.20
56436;DHT22;42335;44.872;20.658;2023-05-17T11:41:56;742.90;1433.60
56436;DHT22;42335;44.872;20.658;2023-05-17T11:44:29;743.00;1433.60
56436;DHT22;42335;44.872;20.658;2023-05-17T11:47:03;743.10;1408.00
56436;DHT22;42335;44.872;20.658;2023-05-17T11:49:30;743.10;1408.00
56436;DHT22;42335;44.872;20.658;2023-05-17T11:51:57;743.10;1408.00
56436;DHT22;42335;44.872;20.658;2023-05-17T11:54:24;743.00;1433.60
56436;DHT22;42335;44.872;20.658;2023-05-17T12:14:03;742.90;1408.00
56436;DHT22;42335;44.872;20.658;2023-05-17T13:00:39;743.10;1433.60
56436;DHT22;42335;44.872;20.658;2023-05-17T13:45:05;717.40;1484.80
56436;DHT22;42335;44.872;20.658;2023-05-17T14:04:38;691.60;1561.60
56436;DHT22;42335;44.872;20.658;2023-05-17T14:07:04;691.50;1561.60
56436;DHT22;42335;44.872;20.658;2023-05-17T14:09:30;691.40;1587.20
56436;DHT22;42335;44.872;20.658;2023-05-17T14:11:59;691.40;1612.80
56436;DHT22;42335;44.872;20.658;2023-05-17T14:14:25;691.40;1612.80
56436;DHT22;42335;44.872;20.658;2023-05-17T14:16:53;691.40;1587.20
56436;DHT22;42335;44.872;20.658;2023-05-17T14:19:19;691.60;1587.20
56436;DHT22;42335;44.872;20.658;2023-05-17T14:21:48;691.60;1587.20
56436;DHT22;42335;44.872;20.658;2023-05-17T14:24:14;691.40;1587.20
56436;DHT22;42335;44.872;20.658;2023-05-17T14:26:40;691.60;1587.20
56436;DHT22;42335;44.872;20.658;2023-05-17T14:29:06;691.40;1612.80
56436;DHT22;42335;44.872;20.658;2023-05-17T14:31:32;691.30;1612.80
56436;DHT22;42335;44.872;20.658;2023-05-17T14:33:58;691.60;1587.20
56436;DHT22;42335;44.872;20.658;2023-05-17T14:36:28;691.30;1587.20
56436;DHT22;42335;44.872;20.658;2023-05-17T14:38:53;666.50;1612.80
56436;DHT22;42335;44.872;20.658;2023-05-17T15:15:42;640.30;1715.20
56436;DHT22;42335;44.872;20.658;2023-05-17T16:38:47;588.80;2048.00
56436;DHT22;42335;44.872;20.658;2023-05-17T16:41:12;564.10;2048.00
56436;DHT22;42335;44.872;20.658;2023-05-17T16:43:38;564.10;2073.60
56436;DHT22;42335;44.872;20.658;2023-05-17T16:46:04;563.90;2073.60
56436;DHT22;42335;44.872;20.658;2023-05-17T16:48:30;563.80;2099.20
56436;DHT22;42335;44.872;20.658;2023-05-17T16:50:56;563.80;2099.20
56436;DHT22;42335;44.872;20.658;2023-05-17T16:53:24;563.60;2124.80
56436;DHT22;42335;44.872;20.658;2023-05-17T16:55:52;563.60;2150.40
56436;DHT22;42335;44.872;20.658;2023-05-17T16:58:18;563.60;2150.40
56436;DHT22;42335;44.872;20.658;2023-05-17T17:05:37;563.60;2176.00
56436;DHT22;42335;44.872;20.658;2023-05-17T17:08:02;563.30;2176.00
56436;DHT22;42335;44.872;20.658;2023-05-17T17:27:33;538.30;2304.00
56436;DHT22;42335;44.872;20.658;2023-05-17T17:30:00;537.70;2355.20
56436;DHT22;42335;44.872;20.658;2023-05-17T17:32:26;537.60;2380.80
56436;DHT22;42335;44.872;20.658;2023-05-17T17:34:51;537.70;2406.40
56436;DHT22;42335;44.872;20.658;2023-05-17T22:18:02;461.40;2380.80
56436;DHT22;42335;44.872;20.658;2023-05-17T22:20:29;461.30;2380.80
56436;DHT22;42335;44.872;20.658;2023-05-17T23:16:46;460.90;2380.80
56436;DHT22;42335;44.872;20.658;2023-05-17T23:19:12;436.10;2355.20
56436;DHT22;42335;44.872;20.658;2023-05-17T23:21:38;436.00;2355.20
56436;DHT22;42335;44.872;20.658;2023-05-17T23:24:05;435.90;2355.20
56436;DHT22;42335;44.872;20.658;2023-05-17T23:33:51;436.00;2355.20
56436;DHT22;42335;44.872;20.658;2023-05-17T23:36:17;435.80;2355.20
56436;DHT22;42335;44.872;20.658;2023-05-17T23:38:44;435.60;2355.20
56436;DHT22;42335;44.872;20.658;2023-05-17T23:41:10;435.50;2355.20
56436;DHT22;42335;44.872;20.658;2023-05-17T23:43:42;435.50;2355.20
56436;DHT22;42335;44.872;20.658;2023-05-17T23:46:08;435.50;2355.20
